Time;durP1;ratioP1;P1;durP2;ratioP2;P2;SDS_P1;SDS_P2;PMS_P1;PMS_P2;Temp;Humidity;BMP_temperature;BMP_pressure;BME280_temperature;BME280_humidity;BME280_pressure;Samples;Min_cycle;Max_cycle;Signal;HPM_P1;HPM_P2
2022/06/10 00:01:44;;;;;;;;;4.00;3.00;;;;;20.77;47.24;101872.44;5051648;28;69191;-61
2022/06/10 00:04:10;;;;;;;;;4.00;4.00;;;;;20.78;47.36;101866.91;5060608;28;45277;-61
2022/06/10 00:06:35;;;;;;;;;1.33;1.33;;;;;20.82;47.56;101864.81;5059990;28;67960;-61
2022/06/10 00:09:02;;;;;;;;;3.00;3.00;;;;;20.83;47.21;101866.53;5049709;28;46980;-61
2022/06/10 00:11:27;;;;;;;;;3.00;3.00;;;;;20.84;47.70;101865.56;5064465;28;45946;-61
2022/06/10 00:13:52;;;;;;;;;3.00;3.00;;;;;20.82;47.02;101862.13;5060288;28;67001;-61
2022/06/10 00:16:19;;;;;;;;;2.00;2.00;;;;;20.76;47.57;101860.72;5065736;28;63826;-61
2022/06/10 00:18:45;;;;;;;;;4.67;3.33;;;;;20.76;47.53;101863.44;5065651;28;46029;-60
2022/06/10 00:21:12;;;;;;;;;5.00;2.00;;;;;20.69;47.16;101862.16;5065897;28;45581;-61
2022/06/10 00:23:38;;;;;;;;;4.00;2.00;;;;;20.63;47.77;101857.22;5065286;28;45521;-61
2022/06/10 00:26:04;;;;;;;;;4.00;3.00;;;;;20.58;48.18;101860.25;5069832;28;49749;-61
2022/06/10 00:28:29;;;;;;;;;2.00;2.00;;;;;20.52;47.90;101857.16;5052352;28;46960;-61
2022/06/10 00:30:55;;;;;;;;;5.00;1.00;;;;;20.45;47.83;101859.47;5068849;28;45433;-60
2022/06/10 00:33:20;;;;;;;;;1.75;1.75;;;;;20.35;47.81;101863.84;5049983;28;45511;-61
2022/06/10 00:35:46;;;;;;;;;2.00;2.00;;;;;20.29;47.88;101865.16;5065730;28;64765;-61
2022/06/10 00:38:12;;;;;;;;;2.33;2.33;;;;;20.22;48.29;101855.78;5059604;28;70423;-60
2022/06/10 00:40:41;;;;;;;;;1.67;1.67;;;;;20.16;48.11;101857.13;5066497;28;45452;-61
2022/06/10 00:43:12;;;;;;;;;1.67;1.67;;;;;20.15;48.16;101860.78;5061023;28;45453;-60
2022/06/10 00:46:06;;;;;;;;;6.00;3.00;;;;;20.13;48.69;101855.50;5061270;28;45497;-61
2022/06/10 00:48:40;;;;;;;;;2.00;2.00;;;;;20.11;48.30;101852.03;5037080;28;46181;-60
2022/06/10 00:51:44;;;;;;;;;5.00;3.00;;;;;20.09;48.76;101850.44;5043521;28;45213;-60
2022/06/10 00:54:15;;;;;;;;;3.00;2.67;;;;;20.08;48.45;101852.28;5065118;28;45629;-61
2022/06/10 00:56:45;;;;;;;;;2.67;2.00;;;;;20.05;48.12;101846.22;5059808;28;45534;-60
2022/06/10 00:59:13;;;;;;;;;3.00;2.00;;;;;20.00;48.40;101850.13;5065797;28;46217;-61
2022/06/10 01:01:40;;;;;;;;;5.00;2.00;;;;;19.96;48.24;101837.84;5065819;28;45610;-60
2022/06/10 01:04:05;;;;;;;;;6.67;3.00;;;;;19.95;48.87;101836.13;5064493;28;45501;-61
2022/06/10 01:06:31;;;;;;;;;4.67;4.67;;;;;19.94;48.68;101839.78;5060852;28;45368;-61
2022/06/10 01:08:58;;;;;;;;;2.00;2.00;;;;;19.95;48.46;101837.97;5058795;28;58731;-61
2022/06/10 01:11:49;;;;;;;;;3.00;3.00;;;;;19.94;48.80;101842.50;5044302;28;45321;-60
2022/06/10 01:14:58;;;;;;;;;0.67;0.67;;;;;19.97;48.82;101842.28;5061011;28;45382;-60
2022/06/10 01:17:45;;;;;;;;;3.67;2.00;;;;;19.99;48.66;101842.16;5060972;28;45226;-61
2022/06/10 01:20:25;;;;;;;;;2.67;2.67;;;;;20.00;48.44;101842.03;5053353;28;46354;-61
2022/06/10 01:23:05;;;;;;;;;2.33;2.00;;;;;19.94;48.55;101839.78;5063795;28;45567;-61
2022/06/10 01:26:08;;;;;;;;;2.00;2.00;;;;;19.93;48.63;101840.78;5066764;28;45314;-61
2022/06/10 01:29:07;;;;;;;;;3.33;3.33;;;;;19.91;48.64;101836.47;5056359;28;45292;-61
2022/06/10 01:31:47;;;;;;;;;3.00;3.00;;;;;19.94;48.63;101844.34;5051812;28;46236;-61
2022/06/10 01:34:28;;;;;;;;;2.33;2.00;;;;;19.93;48.43;101838.09;5058374;28;45555;-61
2022/06/10 01:36:59;;;;;;;;;1.67;1.67;;;;;19.92;49.02;101843.56;5057072;28;45863;-61
2022/06/10 01:39:35;;;;;;;;;2.67;2.00;;;;;19.88;48.64;101844.78;5053802;28;45213;-61
2022/06/10 01:42:22;;;;;;;;;2.00;2.00;;;;;19.85;48.70;101850.41;5038777;28;45564;-60
2022/06/10 01:44:59;;;;;;;;;1.67;1.67;;;;;19.82;48.56;101843.41;5062569;28;45470;-61
2022/06/10 01:47:53;;;;;;;;;3.00;3.00;;;;;19.78;49.11;101847.28;5036545;28;45335;-61
2022/06/10 01:50:26;;;;;;;;;3.00;3.00;;;;;19.78;48.92;101841.88;5053244;28;45349;-61
2022/06/10 01:52:56;;;;;;;;;3.00;3.00;;;;;19.79;49.17;101840.88;5049946;28;46484;-61
2022/06/10 01:55:37;;;;;;;;;3.00;3.00;;;;;19.81;49.18;101849.72;5062366;28;45397;-61
2022/06/10 01:58:11;;;;;;;;;4.00;2.33;;;;;19.79;49.18;101846.28;5050945;28;45349;-61
2022/06/10 02:00:40;;;;;;;;;0.33;0.33;;;;;19.78;48.88;101849.97;5031936;28;45533;-60
2022/06/10 02:03:11;;;;;;;;;4.33;1.33;;;;;19.77;49.18;101843.69;5041697;28;45537;-61
2022/06/10 02:05:43;;;;;;;;;3.00;2.00;;;;;19.79;48.72;101846.28;5064392;28;45647;-61
2022/06/10 02:08:18;;;;;;;;;3.00;3.00;;;;;19.75;48.96;101848.34;5042081;28;45466;-61
2022/06/10 02:10:50;;;;;;;;;1.00;1.00;;;;;19.79;48.93;101849.84;5045968;28;45318;-61
2022/06/10 02:13:21;;;;;;;;;5.00;2.00;;;;;19.85;48.72;101850.41;5066741;28;47009;-61
2022/06/10 02:15:50;;;;;;;;;2.00;2.00;;;;;19.90;48.78;101851.78;5053169;28;45369;-61
2022/06/10 02:18:29;;;;;;;;;1.00;1.00;;;;;19.99;48.69;101853.81;5044098;28;45488;-61
2022/06/10 02:21:00;;;;;;;;;3.33;2.00;;;;;20.05;48.71;101852.53;5042151;28;45254;-61
2022/06/10 02:23:29;;;;;;;;;2.00;2.00;;;;;20.07;49.15;101852.41;5052651;28;46383;-61
2022/06/10 02:25:57;;;;;;;;;2.67;2.67;;;;;20.06;49.21;101846.13;5046767;28;45473;-61
2022/06/10 02:28:27;;;;;;;;;2.00;2.00;;;;;20.09;48.64;101848.59;5058506;28;45510;-61
2022/06/10 02:31:08;;;;;;;;;2.00;2.00;;;;;20.10;49.00;101852.16;5048824;28;45761;-61
2022/06/10 02:33:35;;;;;;;;;2.67;2.67;;;;;20.09;49.12;101848.59;5039561;28;47054;-61
2022/06/10 02:36:10;;;;;;;;;3.67;3.67;;;;;20.08;48.89;101852.28;5063682;28;45431;-61
2022/06/10 02:38:46;;;;;;;;;2.00;2.00;;;;;20.09;48.56;101853.13;5059237;28;45562;-61
2022/06/10 02:41:19;;;;;;;;;3.67;2.67;;;;;20.08;49.04;101856.84;5055707;28;45786;-61
2022/06/10 02:43:51;;;;;;;;;1.00;1.00;;;;;20.07;49.04;101860.50;5066174;28;45548;-61
2022/06/10 02:46:22;;;;;;;;;1.33;1.00;;;;;20.05;49.05;101857.03;5033540;28;45265;-61
2022/06/10 02:49:07;;;;;;;;;4.67;4.00;;;;;20.03;49.06;101854.47;5053819;28;45682;-61
2022/06/10 02:51:33;;;;;;;;;4.00;2.00;;;;;19.99;49.14;101861.91;5061005;28;45475;-60
2022/06/10 02:54:01;;;;;;;;;2.67;2.67;;;;;19.99;49.27;101853.81;5054991;28;45453;-61
2022/06/10 02:56:28;;;;;;;;;2.00;2.00;;;;;19.96;48.82;101856.75;5066558;28;45414;-61
2022/06/10 03:02:03;;;;;;;;;3.00;2.33;;;;;19.78;48.78;101858.91;5061025;28;45412;-61
2022/06/10 03:04:58;;;;;;;;;3.00;3.00;;;;;19.73;48.93;101861.09;5062439;28;46352;-61
2022/06/10 03:07:52;;;;;;;;;2.33;2.00;;;;;19.69;49.33;101856.88;5055148;28;45260;-61
2022/06/10 03:10:29;;;;;;;;;3.00;3.00;;;;;19.67;49.48;101862.41;5050355;28;45271;-61
2022/06/10 03:13:19;;;;;;;;;3.33;2.00;;;;;19.70;49.41;101863.13;5057486;28;45276;-60
2022/06/10 03:15:56;;;;;;;;;3.00;3.00;;;;;19.72;49.56;101878.25;5060720;28;46157;-61
2022/06/10 03:18:37;;;;;;;;;1.00;1.00;;;;;19.73;49.39;101871.03;5061788;28;45444;-61
2022/06/10 03:21:16;;;;;;;;;3.67;2.67;;;;;19.73;49.64;101871.03;5065021;28;45465;-61
2022/06/10 03:24:11;;;;;;;;;3.00;2.00;;;;;19.71;49.26;101875.66;5067774;28;45464;-61
2022/06/10 03:27:03;;;;;;;;;3.00;3.00;;;;;19.67;49.41;101875.91;5050663;28;47370;-61
2022/06/10 03:29:50;;;;;;;;;5.00;3.00;;;;;19.67;49.51;101873.19;5054745;28;45540;-61
2022/06/10 03:32:25;;;;;;;;;2.67;2.67;;;;;19.69;49.74;101878.47;5062926;28;45338;-60
2022/06/10 03:35:00;;;;;;;;;6.33;1.67;;;;;19.70;49.29;101877.50;5045632;28;45530;-60
2022/06/10 03:37:26;;;;;;;;;3.67;3.00;;;;;19.66;49.40;101874.16;5059651;28;45409;-60
2022/06/10 03:39:53;;;;;;;;;2.00;2.00;;;;;19.63;49.62;101881.59;5051835;28;45496;-61
2022/06/10 03:42:20;;;;;;;;;3.00;2.00;;;;;19.59;49.86;101877.41;5057326;28;45177;-60
2022/06/10 03:44:52;;;;;;;;;3.00;2.00;;;;;19.60;49.72;101879.13;5062962;28;45474;-60
2022/06/10 03:47:30;;;;;;;;;4.00;2.67;;;;;19.59;50.06;101875.56;5050905;28;45645;-60
2022/06/10 03:50:08;;;;;;;;;3.67;3.67;;;;;19.58;50.32;101881.94;5048092;28;45423;-60
2022/06/10 03:52:37;;;;;;;;;3.33;1.67;;;;;19.58;50.21;101879.25;5061043;28;45494;-60
2022/06/10 03:55:04;;;;;;;;;2.33;2.33;;;;;19.56;50.04;101878.50;5048206;28;45497;-61
2022/06/10 03:57:29;;;;;;;;;3.00;3.00;;;;;19.56;50.09;101875.78;5068483;28;46384;-60
2022/06/10 03:59:54;;;;;;;;;4.00;3.00;;;;;19.54;50.17;101882.28;5053492;28;45512;-60
2022/06/10 04:02:20;;;;;;;;;2.67;2.67;;;;;19.48;50.34;101881.72;5051263;28;61428;-60
2022/06/10 04:04:45;;;;;;;;;2.00;1.00;;;;;19.48;50.22;101884.44;5051991;28;60487;-60
2022/06/10 04:07:14;;;;;;;;;5.33;4.00;;;;;19.48;50.52;101880.88;5049173;28;47018;-60
2022/06/10 04:09:39;;;;;;;;;2.00;2.00;;;;;19.48;50.64;101886.28;5060726;28;45460;-60
2022/06/10 04:12:05;;;;;;;;;2.00;2.00;;;;;19.47;50.60;101890.78;5067759;28;68431;-61
2022/06/10 04:14:31;;;;;;;;;1.33;1.33;;;;;19.44;50.41;101891.00;5062410;28;45306;-60
2022/06/10 04:16:56;;;;;;;;;0.00;0.00;;;;;19.42;50.59;101894.78;5077997;28;46033;-61
2022/06/10 04:19:22;;;;;;;;;4.33;3.33;;;;;19.39;50.89;101898.56;5051894;28;45325;-61
2022/06/10 04:21:47;;;;;;;;;4.33;3.00;;;;;19.39;51.07;101901.25;5062279;28;66536;-61
2022/06/10 04:24:13;;;;;;;;;3.00;2.67;;;;;19.41;51.05;101901.16;5061246;28;58440;-61
2022/06/10 04:26:38;;;;;;;;;3.00;2.67;;;;;19.43;51.13;101905.47;5068533;28;46070;-61
2022/06/10 04:29:04;;;;;;;;;3.00;2.00;;;;;19.45;51.20;101908.94;5060518;28;45402;-61
2022/06/10 04:31:29;;;;;;;;;4.33;3.67;;;;;19.47;51.14;101911.53;5052701;28;64304;-61
2022/06/10 04:33:54;;;;;;;;;3.67;2.67;;;;;19.48;51.09;101900.63;5063164;28;60401;-59
2022/06/10 04:36:20;;;;;;;;;1.67;1.67;;;;;19.50;51.14;101905.91;5056322;28;46263;-59
2022/06/10 04:38:46;;;;;;;;;3.33;2.00;;;;;19.50;51.12;101912.19;5067110;28;45509;-59
2022/06/10 04:41:12;;;;;;;;;2.00;2.00;;;;;19.47;51.42;101914.22;5061427;28;45483;-59
2022/06/10 04:43:37;;;;;;;;;3.00;3.00;;;;;19.42;51.42;101913.69;5070326;27;45778;-58
2022/06/10 04:46:05;;;;;;;;;4.00;2.33;;;;;19.38;51.40;101912.16;5066875;28;65434;-59
2022/06/10 04:48:31;;;;;;;;;5.00;3.00;;;;;19.36;51.50;101911.41;5064352;28;45420;-59
2022/06/10 04:50:56;;;;;;;;;3.00;3.00;;;;;19.39;51.72;101913.91;5065859;28;45256;-59
2022/06/10 04:53:22;;;;;;;;;2.33;2.33;;;;;19.40;51.41;101908.41;5042903;28;61696;-58
2022/06/10 04:55:47;;;;;;;;;3.00;3.00;;;;;19.42;51.49;101903.75;5061386;28;46101;-58
2022/06/10 04:58:13;;;;;;;;;4.67;3.00;;;;;19.46;51.55;101909.78;5058398;28;71543;-58
2022/06/10 05:00:42;;;;;;;;;3.00;2.00;;;;;19.50;51.54;101903.19;5056261;28;64754;-58
2022/06/10 05:03:08;;;;;;;;;2.00;2.00;;;;;19.54;51.93;101912.78;5068257;28;45240;-58
2022/06/10 05:05:34;;;;;;;;;2.67;2.33;;;;;19.53;51.86;101916.50;5060819;28;47265;-58
2022/06/10 05:08:00;;;;;;;;;4.00;3.33;;;;;19.55;51.40;101921.78;5056742;28;45426;-58
2022/06/10 05:10:26;;;;;;;;;3.00;2.67;;;;;19.54;51.64;101918.19;5059000;28;45422;-59
2022/06/10 05:12:52;;;;;;;;;4.00;3.00;;;;;19.56;51.84;101912.72;5062654;28;45465;-59
2022/06/10 05:15:21;;;;;;;;;2.67;2.67;;;;;19.57;51.86;101909.91;5073729;28;47034;-58
2022/06/10 05:17:48;;;;;;;;;3.67;3.00;;;;;19.55;52.32;101909.13;5070215;28;45697;-58
2022/06/10 05:20:21;;;;;;;;;3.67;3.00;;;;;19.47;52.29;101909.66;5052675;28;45592;-58
2022/06/10 05:22:46;;;;;;;;;4.00;3.00;;;;;19.40;52.19;101910.22;5052144;28;45344;-59
2022/06/10 05:25:12;;;;;;;;;2.67;2.00;;;;;19.39;52.14;101916.59;5061604;28;56787;-59
2022/06/10 05:27:37;;;;;;;;;4.67;3.00;;;;;19.36;52.15;101916.78;5066711;28;68205;-58
2022/06/10 05:30:04;;;;;;;;;2.67;2.67;;;;;19.37;52.25;101915.84;5054752;28;45197;-58
2022/06/10 05:32:29;;;;;;;;;4.00;3.67;;;;;19.32;52.68;101914.31;5059645;28;45375;-58
2022/06/10 05:34:55;;;;;;;;;2.33;2.00;;;;;19.26;53.01;101920.13;5059799;28;66751;-58
2022/06/10 05:37:25;;;;;;;;;5.00;3.00;;;;;19.22;53.11;101913.22;5059237;28;67797;-58
2022/06/10 05:39:52;;;;;;;;;2.67;2.00;;;;;19.20;53.36;101923.25;5059314;28;45356;-59
2022/06/10 05:42:18;;;;;;;;;4.00;3.00;;;;;19.24;52.70;101918.50;5055559;28;45200;-59
2022/06/10 05:44:45;;;;;;;;;4.00;1.33;;;;;19.29;53.00;101925.31;5056473;28;66525;-59
2022/06/10 05:47:14;;;;;;;;;4.00;2.67;;;;;19.43;53.07;101926.19;5071139;28;45338;-59
2022/06/10 05:49:42;;;;;;;;;1.00;1.00;;;;;19.47;53.21;101923.16;5058205;28;45379;-59
2022/06/10 05:52:10;;;;;;;;;3.33;3.00;;;;;19.47;52.51;101933.09;5059361;28;45323;-58
2022/06/10 05:54:38;;;;;;;;;4.00;2.33;;;;;19.49;52.88;101936.56;5061985;28;45929;-58
2022/06/10 05:57:04;;;;;;;;;2.33;2.00;;;;;19.51;52.44;101940.84;5059637;28;45539;-59
2022/06/10 05:59:29;;;;;;;;;3.33;2.00;;;;;19.52;52.75;101936.34;5041295;28;45407;-58
2022/06/10 06:01:58;;;;;;;;;2.33;1.33;;;;;19.55;53.37;101946.91;5058544;28;45611;-58
2022/06/10 06:04:23;;;;;;;;;4.00;3.00;;;;;19.50;53.17;101944.56;5065811;28;46105;-60
2022/06/10 06:06:49;;;;;;;;;2.33;2.00;;;;;19.49;52.91;101945.50;5063574;28;45446;-59
2022/06/10 06:09:14;;;;;;;;;2.00;2.00;;;;;19.50;53.65;101954.47;5061408;28;45579;-59
2022/06/10 06:11:41;;;;;;;;;4.00;2.00;;;;;19.51;52.75;101956.19;5040486;28;45539;-59
2022/06/10 06:14:06;;;;;;;;;1.67;1.33;;;;;19.52;53.32;101957.94;5066919;28;46344;-59
2022/06/10 06:16:32;;;;;;;;;4.33;2.00;;;;;19.56;53.90;101958.59;5057763;28;45386;-59
2022/06/10 06:18:57;;;;;;;;;4.67;3.00;;;;;19.57;53.33;101958.47;5069672;28;68843;-59
2022/06/10 06:21:23;;;;;;;;;2.00;2.00;;;;;19.64;53.33;101970.53;5057710;28;62880;-59
2022/06/10 06:23:48;;;;;;;;;5.00;3.00;;;;;19.76;53.37;101963.41;5058080;28;70598;-59
2022/06/10 06:26:17;;;;;;;;;3.67;2.00;;;;;19.84;52.67;101962.91;5046274;28;70250;-59
2022/06/10 06:28:43;;;;;;;;;2.00;2.00;;;;;19.95;52.85;101970.25;5070342;27;45806;-60
2022/06/10 06:31:09;;;;;;;;;2.00;2.00;;;;;20.05;53.13;101968.63;5058580;28;45153;-60
2022/06/10 06:33:35;;;;;;;;;4.33;3.00;;;;;20.20;52.56;101963.94;5057355;28;46319;-61
2022/06/10 06:36:01;;;;;;;;;1.67;1.33;;;;;20.36;52.39;101970.94;5040911;28;45390;-59
2022/06/10 06:38:27;;;;;;;;;3.00;1.33;;;;;20.45;52.38;101964.84;5044896;28;45787;-59
2022/06/10 06:40:52;;;;;;;;;3.33;2.33;;;;;20.60;51.94;101965.56;5061743;28;45362;-62
2022/06/10 06:43:17;;;;;;;;;1.67;1.67;;;;;20.76;51.94;101962.59;5063417;28;62685;-61
2022/06/10 06:45:43;;;;;;;;;1.67;1.67;;;;;20.97;51.29;101970.94;5051754;28;65737;-61
2022/06/10 06:48:09;;;;;;;;;2.33;1.67;;;;;21.17;50.94;101968.53;5038418;28;59725;-60
2022/06/10 06:50:37;;;;;;;;;1.75;1.75;;;;;21.39;50.88;101965.03;5065632;28;45237;-61
2022/06/10 06:53:02;;;;;;;;;3.00;3.00;;;;;21.58;49.81;101961.78;5062458;28;46969;-62
2022/06/10 06:55:28;;;;;;;;;2.33;1.33;;;;;21.74;49.73;101961.44;5073560;28;45375;-62
2022/06/10 06:57:53;;;;;;;;;4.00;1.00;;;;;21.98;49.92;101964.91;5065609;28;61314;-62
2022/06/10 07:00:20;;;;;;;;;2.00;2.00;;;;;22.26;48.14;101964.50;5061288;28;65640;-62
2022/06/10 07:02:45;;;;;;;;;1.00;1.00;;;;;22.51;48.55;101966.06;5061928;28;45412;-62
2022/06/10 07:05:12;;;;;;;;;3.00;2.00;;;;;22.74;47.87;101966.88;5061574;28;48422;-62
2022/06/10 07:07:39;;;;;;;;;1.50;1.50;;;;;22.93;47.40;101966.22;5054699;28;46434;-62
2022/06/10 07:10:05;;;;;;;;;2.00;2.00;;;;;23.15;47.39;101968.97;5061412;28;45371;-62
2022/06/10 07:12:30;;;;;;;;;4.00;1.50;;;;;23.42;47.20;101960.31;5059686;28;46916;-62
2022/06/10 07:14:56;;;;;;;;;1.50;1.50;;;;;23.66;46.08;101953.72;5060076;28;64141;-62
2022/06/10 07:17:21;;;;;;;;;2.00;1.75;;;;;23.82;45.19;101958.66;5059528;28;61573;-62
2022/06/10 07:19:51;;;;;;;;;2.50;1.75;;;;;24.00;44.74;101956.19;5060065;28;45325;-62
2022/06/10 07:22:17;;;;;;;;;3.75;1.00;;;;;24.16;44.36;101945.66;5059373;28;47063;-63
2022/06/10 07:24:43;;;;;;;;;1.00;1.00;;;;;24.24;43.50;101955.84;5060750;28;45528;-63
2022/06/10 07:27:08;;;;;;;;;1.50;1.50;;;;;24.42;44.52;101962.34;5060455;28;45556;-62
2022/06/10 07:29:34;;;;;;;;;1.75;1.75;;;;;24.80;44.19;101959.84;5070263;28;45510;-63
2022/06/10 07:31:59;;;;;;;;;2.00;2.00;;;;;25.30;42.66;101963.41;5062307;28;60941;-62
2022/06/10 07:34:24;;;;;;;;;2.25;2.25;;;;;25.78;42.87;101967.03;5060277;28;69621;-63
2022/06/10 07:36:50;;;;;;;;;1.00;1.00;;;;;26.25;41.30;101961.53;5061520;28;45722;-62
2022/06/10 07:39:15;;;;;;;;;0.25;0.25;;;;;26.71;40.45;101967.84;5059278;28;45473;-62
2022/06/10 07:44:25;;;;;;;;;0.60;0.60;;;;;27.34;37.81;101976.06;5059822;28;45304;-63
2022/06/10 07:46:52;;;;;;;;;2.00;2.00;;;;;27.29;38.73;101973.81;5068737;28;45461;-63
2022/06/10 07:49:18;;;;;;;;;1.25;1.25;;;;;27.05;38.34;101975.34;5066832;28;45216;-63
2022/06/10 07:51:43;;;;;;;;;2.00;1.25;;;;;26.78;38.82;101970.84;5060959;28;45274;-63
2022/06/10 07:54:09;;;;;;;;;1.00;1.00;;;;;26.72;39.65;101976.91;5041474;28;45478;-63
2022/06/10 07:56:35;;;;;;;;;2.00;2.00;;;;;26.70;38.65;101974.31;5069960;28;45573;-64
2022/06/10 07:59:01;;;;;;;;;3.00;2.00;;;;;26.56;38.71;101967.50;5065957;28;45430;-63
2022/06/10 08:01:27;;;;;;;;;4.00;2.00;;;;;26.45;39.52;101975.88;5059518;28;46191;-59
2022/06/10 08:03:53;;;;;;;;;2.75;1.00;;;;;26.42;39.04;101963.41;5064821;28;45453;-59
2022/06/10 08:06:20;;;;;;;;;3.25;1.75;;;;;26.49;39.47;101971.00;5047173;28;45344;-59
2022/06/10 08:08:46;;;;;;;;;2.00;2.00;;;;;26.59;39.57;101966.34;5061177;28;45525;-59
2022/06/10 08:11:11;;;;;;;;;1.25;0.25;;;;;26.92;38.64;101963.94;5074280;28;46515;-59
2022/06/10 08:13:36;;;;;;;;;2.50;1.00;;;;;27.12;37.87;101961.03;5059750;28;72965;-59
2022/06/10 08:16:03;;;;;;;;;1.25;1.25;;;;;27.04;38.07;101959.97;5070836;28;65371;-61
2022/06/10 08:18:31;;;;;;;;;0.00;0.00;;;;;27.03;38.85;101962.88;5060753;28;45528;-61
2022/06/10 08:23:41;;;;;;;;;1.00;0.00;;;;;26.96;37.07;101968.09;5060455;28;45395;-61
2022/06/10 08:26:08;;;;;;;;;0.00;0.00;;;;;26.94;36.45;101953.75;5047665;28;45778;-61
2022/06/10 08:28:35;;;;;;;;;1.75;0.50;;;;;27.36;36.69;101952.19;5060241;28;45373;-61
2022/06/10 08:31:01;;;;;;;;;2.00;1.00;;;;;28.48;37.00;101952.25;5066287;28;46463;-61
2022/06/10 08:33:27;;;;;;;;;2.00;0.75;;;;;29.62;35.75;101949.72;5066526;28;45281;-61
2022/06/10 08:35:52;;;;;;;;;0.00;0.00;;;;;30.71;33.16;101943.59;5060797;28;45514;-61
2022/06/10 08:38:18;;;;;;;;;1.00;1.00;;;;;31.47;26.71;101946.34;5060249;28;45604;-61
2022/06/10 08:40:56;;;;;;;;;0.25;0.25;;;;;31.83;28.08;101942.88;5060360;28;46096;-62
2022/06/10 08:43:29;;;;;;;;;0.00;0.00;;;;;32.20;28.53;101945.72;5041012;28;45319;-62
2022/06/10 08:46:03;;;;;;;;;0.00;0.00;;;;;32.46;28.24;101946.03;5042932;28;45603;-62
2022/06/10 08:48:52;;;;;;;;;0.25;0.25;;;;;32.58;27.78;101940.84;5060291;28;45272;-62
2022/06/10 08:51:26;;;;;;;;;1.00;0.00;;;;;32.70;28.54;101948.56;5042043;28;45475;-62
2022/06/10 08:53:51;;;;;;;;;0.00;0.00;;;;;33.18;28.41;101948.84;5060247;28;45454;-62
2022/06/10 08:56:22;;;;;;;;;0.50;0.00;;;;;33.69;27.75;101947.72;5064060;28;45492;-62
2022/06/10 08:59:10;;;;;;;;;0.00;0.00;;;;;34.56;26.40;101950.00;5060489;28;45555;-62
2022/06/10 09:02:00;;;;;;;;;0.50;0.00;;;;;35.18;25.55;101955.41;5059366;28;45436;-62
2022/06/10 09:04:36;;;;;;;;;0.00;0.00;;;;;35.08;25.17;101959.44;5058541;28;45410;-62
2022/06/10 09:07:08;;;;;;;;;2.50;1.00;;;;;34.81;25.61;101944.75;5059724;28;45454;-62
2022/06/10 09:09:34;;;;;;;;;1.00;0.00;;;;;34.58;26.22;101945.97;5045342;28;45361;-62
2022/06/10 09:12:42;;;;;;;;;0.00;0.00;;;;;34.51;25.39;101944.25;5044711;28;46334;-62
2022/06/10 09:15:10;;;;;;;;;3.00;1.75;;;;;34.62;25.13;101944.47;5011941;28;45424;-63
2022/06/10 09:17:35;;;;;;;;;0.50;0.50;;;;;34.76;25.35;101947.28;5004978;28;45381;-62
2022/06/10 09:20:18;;;;;;;;;0.75;0.00;;;;;35.07;22.79;101949.44;5040058;28;45297;-61
2022/06/10 09:23:02;;;;;;;;;1.00;1.00;;;;;35.36;24.85;101950.09;5053910;28;45770;-62
2022/06/10 09:25:35;;;;;;;;;1.00;0.00;;;;;35.36;22.42;101951.97;5055287;28;45443;-62
2022/06/10 09:28:01;;;;;;;;;0.00;0.00;;;;;34.91;24.08;101945.16;5044297;28;45351;-62
2022/06/10 09:30:51;;;;;;;;;0.00;0.00;;;;;34.43;23.36;101937.88;5059382;28;45215;-62
2022/06/10 09:33:41;;;;;;;;;0.00;0.00;;;;;34.55;24.71;101953.81;5058812;28;46389;-62
2022/06/10 09:36:44;;;;;;;;;0.25;0.25;;;;;34.34;25.08;101952.94;5040448;28;45342;-63
2022/06/10 09:42:28;;;;;;;;;0.75;0.75;;;;;34.90;24.77;101954.56;5048827;28;45445;-62
2022/06/10 09:44:59;;;;;;;;;0.25;0.25;;;;;35.46;24.62;101957.91;5040510;28;47148;-62
2022/06/10 09:47:25;;;;;;;;;2.75;1.50;;;;;35.98;24.44;101958.00;5059088;28;45422;-63
2022/06/10 09:50:17;;;;;;;;;1.00;1.00;;;;;36.36;24.03;101943.38;5059125;28;45204;-62
2022/06/10 09:52:53;;;;;;;;;1.50;1.50;;;;;37.04;23.88;101954.84;5052943;28;45484;-62
2022/06/10 09:56:02;;;;;;;;;9.00;9.00;;;;;37.48;21.51;101964.03;5043844;28;46413;-61
2022/06/10 09:58:51;;;;;;;;;3.25;3.00;;;;;36.96;22.10;101950.44;5037891;28;45762;-61
2022/06/10 10:01:33;;;;;;;;;0.75;0.75;;;;;36.70;22.99;101957.00;5057404;28;45412;-62
2022/06/10 10:04:02;;;;;;;;;11.33;10.33;;;;;36.80;23.06;101959.28;5041411;28;45364;-61
2022/06/10 10:06:43;;;;;;;;;6.00;4.67;;;;;36.65;22.16;101956.81;5058225;28;45477;-62
2022/06/10 10:09:26;;;;;;;;;4.00;4.00;;;;;36.43;22.16;101958.03;5040682;28;45326;-62
2022/06/10 10:12:05;;;;;;;;;1.00;1.00;;;;;36.63;22.69;101962.59;5059260;28;45279;-62
2022/06/10 10:14:36;;;;;;;;;3.75;3.25;;;;;36.86;22.71;101955.66;5059628;28;45305;-62
2022/06/10 10:17:07;;;;;;;;;2.00;0.75;;;;;36.79;20.82;101955.63;5057423;28;46416;-62
2022/06/10 10:19:35;;;;;;;;;1.00;1.00;;;;;36.30;22.97;101968.28;5057305;28;45351;-62
2022/06/10 10:22:28;;;;;;;;;2.50;2.50;;;;;35.64;22.23;101961.94;5055215;28;45289;-62
2022/06/10 10:24:54;;;;;;;;;2.50;0.75;;;;;35.36;22.94;101963.91;5058865;28;45359;-62
2022/06/10 10:27:32;;;;;;;;;0.75;0.75;;;;;35.33;23.86;101949.63;5057368;28;46108;-62
2022/06/10 10:30:16;;;;;;;;;1.75;1.25;;;;;35.32;23.56;101956.22;5057061;28;45288;-62
2022/06/10 10:32:46;;;;;;;;;1.75;1.00;;;;;35.08;23.63;101959.44;5057446;28;45310;-62
2022/06/10 10:35:22;;;;;;;;;2.25;1.00;;;;;34.90;24.02;101950.91;5056312;28;45546;-62
2022/06/10 10:37:55;;;;;;;;;2.25;0.50;;;;;34.35;24.19;101951.03;5058813;28;46466;-62
2022/06/10 10:40:32;;;;;;;;;1.00;0.75;;;;;34.20;25.08;101952.00;5056022;28;45694;-62
2022/06/10 10:42:59;;;;;;;;;1.50;1.00;;;;;34.52;24.03;101944.03;5058440;28;45362;-62
2022/06/10 10:45:37;;;;;;;;;2.00;2.00;;;;;34.58;24.20;101947.91;5055382;28;45393;-61
2022/06/10 10:48:17;;;;;;;;;0.75;0.75;;;;;34.68;24.79;101939.19;5040670;28;45987;-62
2022/06/10 10:51:15;;;;;;;;;3.75;3.50;;;;;34.81;23.90;101943.88;5058529;28;45451;-62
2022/06/10 10:53:54;;;;;;;;;3.25;3.00;;;;;33.89;24.67;101947.00;5041505;28;45400;-62
2022/06/10 10:56:31;;;;;;;;;1.75;1.75;;;;;32.89;25.21;101947.09;5043802;28;45756;-62
2022/06/10 10:58:57;;;;;;;;;0.75;0.75;;;;;32.38;26.82;101943.38;5065111;28;46090;-62
2022/06/10 11:01:51;;;;;;;;;10.25;10.25;;;;;32.30;26.67;101951.75;5051439;28;46175;-62
2022/06/10 11:04:25;;;;;;;;;2.25;0.00;;;;;32.06;27.21;101948.28;5043249;28;45617;-62
2022/06/10 11:07:05;;;;;;;;;1.00;1.00;;;;;31.98;27.04;101948.34;5049484;28;45532;-61
2022/06/10 11:09:31;;;;;;;;;1.00;0.25;;;;;32.26;27.69;101955.94;5050827;28;45469;-62
2022/06/10 11:12:02;;;;;;;;;2.00;2.00;;;;;32.37;27.04;101944.41;5058284;28;45308;-62
2022/06/10 11:14:38;;;;;;;;;9.00;9.00;;;;;32.58;26.48;101943.59;5037491;28;45553;-62
2022/06/10 11:17:11;;;;;;;;;0.75;0.75;;;;;32.45;27.26;101947.06;5052670;28;45924;-62
2022/06/10 11:19:36;;;;;;;;;3.75;2.50;;;;;32.11;27.32;101954.06;5056619;28;46169;-62
2022/06/10 11:22:02;;;;;;;;;0.25;0.00;;;;;32.00;28.27;101946.28;5056211;28;45733;-62
2022/06/10 11:24:37;;;;;;;;;3.25;1.50;;;;;31.67;27.89;101954.94;5058210;28;45230;-62
2022/06/10 11:27:21;;;;;;;;;3.25;3.25;;;;;31.17;27.95;101951.81;5045457;28;45372;-61
2022/06/10 11:30:02;;;;;;;;;6.00;5.75;;;;;30.77;28.92;101954.69;5058871;28;46238;-62
2022/06/10 11:32:40;;;;;;;;;1.25;1.25;;;;;30.46;29.86;101951.97;5061116;28;45315;-62
2022/06/10 11:35:21;;;;;;;;;0.75;0.75;;;;;30.35;29.41;101942.22;5034020;28;45386;-61
2022/06/10 11:37:49;;;;;;;;;3.50;1.75;;;;;30.40;29.48;101947.19;5051378;28;45300;-61
2022/06/10 11:40:23;;;;;;;;;1.00;0.25;;;;;30.48;29.47;101945.28;5067690;27;46965;-61
2022/06/10 11:42:49;;;;;;;;;3.50;2.00;;;;;30.42;29.85;101929.50;5064048;28;45229;-61
2022/06/10 11:45:24;;;;;;;;;2.00;1.75;;;;;30.28;29.94;101944.00;5056890;28;45430;-61
2022/06/10 11:48:13;;;;;;;;;2.25;0.50;;;;;30.20;29.90;101943.00;5073599;27;45404;-61
2022/06/10 11:50:45;;;;;;;;;0.75;0.75;;;;;30.19;29.99;101941.31;5060804;28;45383;-61
2022/06/10 11:53:17;;;;;;;;;2.00;2.00;;;;;30.22;29.90;101931.88;5054041;28;45489;-61
2022/06/10 11:55:44;;;;;;;;;1.25;1.25;;;;;30.07;30.63;101939.16;5063267;28;45511;-60
2022/06/10 12:00:57;;;;;;;;;0.50;0.50;;;;;29.52;31.26;101928.00;5066965;28;45289;-61